sensor_id;sensor_type;location;lat;lon;timestamp;P1;durP1;ratioP1;P2;durP2;ratioP2
39994;SDS011;25686;51.908;10.418;2023-08-07T00:00:50;9.18;;;6.50;;
39994;SDS011;25686;51.908;10.418;2023-08-07T00:02:51;10.65;;;7.25;;
39994;SDS011;25686;51.908;10.418;2023-08-07T00:04:52;10.63;;;7.57;;
39994;SDS011;25686;51.908;10.418;2023-08-07T00:06:53;13.63;;;7.57;;
39994;SDS011;25686;51.908;10.418;2023-08-07T00:08:54;11.68;;;7.75;;
39994;SDS011;25686;51.908;10.418;2023-08-07T00:11:04;12.10;;;8.18;;
39994;SDS011;25686;51.908;10.418;2023-08-07T00:13:04;11.00;;;8.75;;
39994;SDS011;25686;51.908;10.418;2023-08-07T00:15:06;12.73;;;8.82;;
39994;SDS011;25686;51.908;10.418;2023-08-07T00:17:07;13.38;;;8.30;;
39994;SDS011;25686;51.908;10.418;2023-08-07T00:19:08;17.35;;;9.65;;
39994;SDS011;25686;51.908;10.418;2023-08-07T00:21:09;10.95;;;8.55;;
39994;SDS011;25686;51.908;10.418;2023-08-07T00:23:10;11.68;;;8.57;;
39994;SDS011;25686;51.908;10.418;2023-08-07T00:25:11;13.18;;;9.32;;
39994;SDS011;25686;51.908;10.418;2023-08-07T00:27:12;16.25;;;9.38;;
39994;SDS011;25686;51.908;10.418;2023-08-07T00:29:14;14.68;;;9.70;;
39994;SDS011;25686;51.908;10.418;2023-08-07T00:31:15;14.80;;;9.93;;
39994;SDS011;25686;51.908;10.418;2023-08-07T00:33:16;16.55;;;9.57;;
39994;SDS011;25686;51.908;10.418;2023-08-07T00:35:17;13.63;;;10.07;;
39994;SDS011;25686;51.908;10.418;2023-08-07T00:37:18;15.73;;;9.63;;
39994;SDS011;25686;51.908;10.418;2023-08-07T00:39:19;16.15;;;10.60;;
39994;SDS011;25686;51.908;10.418;2023-08-07T00:41:20;15.70;;;11.00;;
39994;SDS011;25686;51.908;10.418;2023-08-07T00:43:21;14.52;;;10.82;;
39994;SDS011;25686;51.908;10.418;2023-08-07T00:45:22;18.73;;;12.32;;
39994;SDS011;25686;51.908;10.418;2023-08-07T00:47:24;15.85;;;11.73;;
39994;SDS011;25686;51.908;10.418;2023-08-07T00:49:25;17.48;;;11.20;;
39994;SDS011;25686;51.908;10.418;2023-08-07T00:51:26;13.32;;;10.60;;
39994;SDS011;25686;51.908;10.418;2023-08-07T00:53:27;15.60;;;11.07;;
39994;SDS011;25686;51.908;10.418;2023-08-07T00:55:28;15.82;;;11.77;;
39994;SDS011;25686;51.908;10.418;2023-08-07T00:57:29;15.30;;;10.95;;
39994;SDS011;25686;51.908;10.418;2023-08-07T00:59:31;14.43;;;10.18;;
39994;SDS011;25686;51.908;10.418;2023-08-07T01:01:32;16.73;;;10.93;;
39994;SDS011;25686;51.908;10.418;2023-08-07T01:03:33;15.98;;;10.63;;
39994;SDS011;25686;51.908;10.418;2023-08-07T01:05:34;16.45;;;10.00;;
39994;SDS011;25686;51.908;10.418;2023-08-07T01:07:35;14.60;;;9.77;;
39994;SDS011;25686;51.908;10.418;2023-08-07T01:09:36;16.98;;;10.25;;
39994;SDS011;25686;51.908;10.418;2023-08-07T01:11:50;13.75;;;10.00;;
39994;SDS011;25686;51.908;10.418;2023-08-07T01:16:01;14.65;;;9.70;;
39994;SDS011;25686;51.908;10.418;2023-08-07T01:18:03;14.20;;;9.15;;
39994;SDS011;25686;51.908;10.418;2023-08-07T01:20:05;13.20;;;8.73;;
39994;SDS011;25686;51.908;10.418;2023-08-07T01:24:08;11.05;;;8.32;;
39994;SDS011;25686;51.908;10.418;2023-08-07T01:26:09;16.05;;;9.43;;
39994;SDS011;25686;51.908;10.418;2023-08-07T01:28:32;14.15;;;9.23;;
39994;SDS011;25686;51.908;10.418;2023-08-07T01:30:36;15.85;;;9.10;;
39994;SDS011;25686;51.908;10.418;2023-08-07T01:32:47;11.95;;;8.10;;
39994;SDS011;25686;51.908;10.418;2023-08-07T01:34:50;11.10;;;7.95;;
39994;SDS011;25686;51.908;10.418;2023-08-07T01:36:51;9.82;;;6.90;;
39994;SDS011;25686;51.908;10.418;2023-08-07T01:38:55;7.43;;;4.75;;
39994;SDS011;25686;51.908;10.418;2023-08-07T01:40:57;5.53;;;4.70;;
39994;SDS011;25686;51.908;10.418;2023-08-07T01:42:59;7.07;;;5.13;;
39994;SDS011;25686;51.908;10.418;2023-08-07T01:45:00;5.50;;;4.35;;
39994;SDS011;25686;51.908;10.418;2023-08-07T01:47:01;8.38;;;5.05;;
39994;SDS011;25686;51.908;10.418;2023-08-07T01:49:03;6.10;;;4.85;;
39994;SDS011;25686;51.908;10.418;2023-08-07T01:51:03;6.97;;;4.35;;
39994;SDS011;25686;51.908;10.418;2023-08-07T01:53:05;7.15;;;5.00;;
39994;SDS011;25686;51.908;10.418;2023-08-07T01:55:06;5.28;;;4.40;;
39994;SDS011;25686;51.908;10.418;2023-08-07T01:57:07;4.75;;;4.07;;
39994;SDS011;25686;51.908;10.418;2023-08-07T01:59:08;4.60;;;3.85;;
39994;SDS011;25686;51.908;10.418;2023-08-07T02:01:09;4.38;;;3.63;;
39994;SDS011;25686;51.908;10.418;2023-08-07T02:03:10;4.22;;;3.40;;
39994;SDS011;25686;51.908;10.418;2023-08-07T02:05:11;6.25;;;3.65;;
39994;SDS011;25686;51.908;10.418;2023-08-07T02:07:12;3.08;;;2.78;;
39994;SDS011;25686;51.908;10.418;2023-08-07T02:09:13;3.20;;;2.70;;
39994;SDS011;25686;51.908;10.418;2023-08-07T02:11:14;3.60;;;2.72;;
39994;SDS011;25686;51.908;10.418;2023-08-07T02:13:15;2.53;;;2.33;;
39994;SDS011;25686;51.908;10.418;2023-08-07T02:15:16;2.40;;;2.13;;
39994;SDS011;25686;51.908;10.418;2023-08-07T02:17:17;2.47;;;2.08;;
39994;SDS011;25686;51.908;10.418;2023-08-07T02:19:18;3.15;;;2.20;;
39994;SDS011;25686;51.908;10.418;2023-08-07T02:21:19;2.95;;;2.55;;
39994;SDS011;25686;51.908;10.418;2023-08-07T02:23:20;3.05;;;2.08;;
39994;SDS011;25686;51.908;10.418;2023-08-07T02:25:21;3.40;;;2.40;;
39994;SDS011;25686;51.908;10.418;2023-08-07T02:27:22;3.97;;;3.28;;
39994;SDS011;25686;51.908;10.418;2023-08-07T02:29:23;6.97;;;3.67;;
39994;SDS011;25686;51.908;10.418;2023-08-07T02:31:24;5.68;;;3.60;;
39994;SDS011;25686;51.908;10.418;2023-08-07T02:33:25;4.97;;;3.40;;
39994;SDS011;25686;51.908;10.418;2023-08-07T02:35:26;6.35;;;3.72;;
39994;SDS011;25686;51.908;10.418;2023-08-07T02:37:27;5.80;;;3.58;;
39994;SDS011;25686;51.908;10.418;2023-08-07T02:39:28;4.22;;;3.38;;
39994;SDS011;25686;51.908;10.418;2023-08-07T02:41:29;4.53;;;3.83;;
39994;SDS011;25686;51.908;10.418;2023-08-07T02:43:31;6.05;;;3.60;;
39994;SDS011;25686;51.908;10.418;2023-08-07T02:45:34;4.05;;;3.58;;
39994;SDS011;25686;51.908;10.418;2023-08-07T02:47:35;5.22;;;3.28;;
39994;SDS011;25686;51.908;10.418;2023-08-07T02:49:37;4.80;;;3.40;;
39994;SDS011;25686;51.908;10.418;2023-08-07T02:51:37;6.43;;;3.45;;
39994;SDS011;25686;51.908;10.418;2023-08-07T02:53:38;5.53;;;3.47;;
39994;SDS011;25686;51.908;10.418;2023-08-07T02:55:42;5.30;;;3.13;;
39994;SDS011;25686;51.908;10.418;2023-08-07T02:57:43;7.07;;;3.53;;
39994;SDS011;25686;51.908;10.418;2023-08-07T02:59:44;8.68;;;3.20;;
39994;SDS011;25686;51.908;10.418;2023-08-07T03:01:45;4.90;;;3.72;;
39994;SDS011;25686;51.908;10.418;2023-08-07T03:03:46;7.70;;;3.95;;
39994;SDS011;25686;51.908;10.418;2023-08-07T03:05:50;6.38;;;3.50;;
39994;SDS011;25686;51.908;10.418;2023-08-07T03:07:51;5.50;;;3.72;;
39994;SDS011;25686;51.908;10.418;2023-08-07T03:09:52;4.90;;;3.65;;
39994;SDS011;25686;51.908;10.418;2023-08-07T03:11:53;5.90;;;4.50;;
39994;SDS011;25686;51.908;10.418;2023-08-07T03:13:54;12.80;;;4.18;;
39994;SDS011;25686;51.908;10.418;2023-08-07T03:16:01;5.93;;;4.20;;
39994;SDS011;25686;51.908;10.418;2023-08-07T03:18:03;7.53;;;4.47;;
39994;SDS011;25686;51.908;10.418;2023-08-07T03:20:04;7.68;;;4.30;;
39994;SDS011;25686;51.908;10.418;2023-08-07T03:22:05;7.00;;;4.40;;
39994;SDS011;25686;51.908;10.418;2023-08-07T03:24:06;7.00;;;4.50;;
39994;SDS011;25686;51.908;10.418;2023-08-07T03:26:09;6.75;;;4.55;;
39994;SDS011;25686;51.908;10.418;2023-08-07T03:28:10;9.18;;;5.20;;
39994;SDS011;25686;51.908;10.418;2023-08-07T03:30:11;8.57;;;5.05;;
39994;SDS011;25686;51.908;10.418;2023-08-07T03:32:12;7.82;;;4.90;;
39994;SDS011;25686;51.908;10.418;2023-08-07T03:34:13;9.10;;;5.63;;
39994;SDS011;25686;51.908;10.418;2023-08-07T03:36:14;10.85;;;5.65;;
39994;SDS011;25686;51.908;10.418;2023-08-07T03:38:15;11.82;;;5.30;;
39994;SDS011;25686;51.908;10.418;2023-08-07T03:40:16;9.98;;;5.72;;
39994;SDS011;25686;51.908;10.418;2023-08-07T03:42:17;10.07;;;5.78;;
39994;SDS011;25686;51.908;10.418;2023-08-07T03:44:18;10.65;;;5.50;;
39994;SDS011;25686;51.908;10.418;2023-08-07T03:46:19;10.40;;;5.30;;
39994;SDS011;25686;51.908;10.418;2023-08-07T03:48:20;8.90;;;6.05;;
39994;SDS011;25686;51.908;10.418;2023-08-07T03:50:21;9.75;;;5.88;;
39994;SDS011;25686;51.908;10.418;2023-08-07T03:52:22;9.63;;;5.70;;
39994;SDS011;25686;51.908;10.418;2023-08-07T03:54:23;9.98;;;5.57;;
39994;SDS011;25686;51.908;10.418;2023-08-07T03:56:24;11.32;;;6.10;;
39994;SDS011;25686;51.908;10.418;2023-08-07T03:58:25;11.68;;;5.43;;
39994;SDS011;25686;51.908;10.418;2023-08-07T04:00:25;8.10;;;5.40;;
39994;SDS011;25686;51.908;10.418;2023-08-07T04:02:27;11.13;;;5.55;;
39994;SDS011;25686;51.908;10.418;2023-08-07T04:04:29;8.50;;;5.28;;
39994;SDS011;25686;51.908;10.418;2023-08-07T04:06:30;12.57;;;5.70;;
39994;SDS011;25686;51.908;10.418;2023-08-07T04:08:31;10.43;;;5.28;;
39994;SDS011;25686;51.908;10.418;2023-08-07T04:10:32;10.25;;;5.00;;
39994;SDS011;25686;51.908;10.418;2023-08-07T04:12:33;7.60;;;5.18;;
39994;SDS011;25686;51.908;10.418;2023-08-07T04:14:34;9.90;;;4.90;;
39994;SDS011;25686;51.908;10.418;2023-08-07T04:16:35;10.15;;;5.07;;
39994;SDS011;25686;51.908;10.418;2023-08-07T04:18:37;8.63;;;4.97;;
39994;SDS011;25686;51.908;10.418;2023-08-07T04:20:38;11.35;;;5.32;;
39994;SDS011;25686;51.908;10.418;2023-08-07T04:22:39;8.52;;;4.82;;
39994;SDS011;25686;51.908;10.418;2023-08-07T04:24:39;10.80;;;5.82;;
39994;SDS011;25686;51.908;10.418;2023-08-07T04:26:40;9.60;;;4.97;;
39994;SDS011;25686;51.908;10.418;2023-08-07T04:28:42;8.80;;;4.70;;
39994;SDS011;25686;51.908;10.418;2023-08-07T04:30:43;9.65;;;5.00;;
39994;SDS011;25686;51.908;10.418;2023-08-07T04:32:44;11.25;;;4.90;;
39994;SDS011;25686;51.908;10.418;2023-08-07T04:34:45;6.65;;;4.47;;
39994;SDS011;25686;51.908;10.418;2023-08-07T04:36:46;9.82;;;4.60;;
39994;SDS011;25686;51.908;10.418;2023-08-07T04:38:47;7.90;;;4.50;;
39994;SDS011;25686;51.908;10.418;2023-08-07T04:40:49;9.98;;;5.07;;
39994;SDS011;25686;51.908;10.418;2023-08-07T04:42:50;8.15;;;5.05;;
39994;SDS011;25686;51.908;10.418;2023-08-07T04:44:51;9.50;;;5.30;;
39994;SDS011;25686;51.908;10.418;2023-08-07T04:46:52;8.35;;;5.20;;
39994;SDS011;25686;51.908;10.418;2023-08-07T04:48:53;8.32;;;4.68;;
39994;SDS011;25686;51.908;10.418;2023-08-07T04:50:54;9.82;;;4.95;;
39994;SDS011;25686;51.908;10.418;2023-08-07T04:52:55;8.85;;;5.15;;
39994;SDS011;25686;51.908;10.418;2023-08-07T04:54:56;10.23;;;4.75;;
39994;SDS011;25686;51.908;10.418;2023-08-07T04:56:57;7.35;;;4.80;;
39994;SDS011;25686;51.908;10.418;2023-08-07T04:58:58;8.32;;;5.03;;
39994;SDS011;25686;51.908;10.418;2023-08-07T05:01:01;7.50;;;4.20;;
39994;SDS011;25686;51.908;10.418;2023-08-07T05:03:03;11.13;;;5.30;;
39994;SDS011;25686;51.908;10.418;2023-08-07T05:05:04;7.55;;;4.78;;
39994;SDS011;25686;51.908;10.418;2023-08-07T05:07:05;8.15;;;4.53;;
39994;SDS011;25686;51.908;10.418;2023-08-07T05:09:06;10.00;;;4.57;;
39994;SDS011;25686;51.908;10.418;2023-08-07T05:11:07;9.93;;;4.78;;
39994;SDS011;25686;51.908;10.418;2023-08-07T05:13:08;8.40;;;4.65;;
39994;SDS011;25686;51.908;10.418;2023-08-07T05:15:09;8.82;;;4.80;;
39994;SDS011;25686;51.908;10.418;2023-08-07T05:17:10;8.48;;;4.53;;
39994;SDS011;25686;51.908;10.418;2023-08-07T05:19:13;6.80;;;4.05;;
39994;SDS011;25686;51.908;10.418;2023-08-07T05:21:14;8.40;;;4.28;;
39994;SDS011;25686;51.908;10.418;2023-08-07T05:23:15;8.43;;;4.60;;
39994;SDS011;25686;51.908;10.418;2023-08-07T05:25:16;5.85;;;4.00;;
39994;SDS011;25686;51.908;10.418;2023-08-07T05:27:18;7.93;;;4.43;;
39994;SDS011;25686;51.908;10.418;2023-08-07T05:29:19;8.07;;;4.07;;
39994;SDS011;25686;51.908;10.418;2023-08-07T05:31:20;7.75;;;4.38;;
39994;SDS011;25686;51.908;10.418;2023-08-07T05:33:21;8.13;;;4.40;;
39994;SDS011;25686;51.908;10.418;2023-08-07T05:35:22;6.25;;;4.20;;
39994;SDS011;25686;51.908;10.418;2023-08-07T05:37:23;7.65;;;4.43;;
39994;SDS011;25686;51.908;10.418;2023-08-07T05:39:24;7.03;;;4.40;;
39994;SDS011;25686;51.908;10.418;2023-08-07T05:41:24;7.10;;;3.95;;
39994;SDS011;25686;51.908;10.418;2023-08-07T05:43:25;10.23;;;4.28;;
39994;SDS011;25686;51.908;10.418;2023-08-07T05:45:26;6.70;;;3.97;;
39994;SDS011;25686;51.908;10.418;2023-08-07T05:47:28;7.70;;;3.88;;
39994;SDS011;25686;51.908;10.418;2023-08-07T05:49:29;7.10;;;3.80;;
39994;SDS011;25686;51.908;10.418;2023-08-07T05:51:30;8.05;;;3.88;;
39994;SDS011;25686;51.908;10.418;2023-08-07T05:53:31;7.40;;;3.72;;
39994;SDS011;25686;51.908;10.418;2023-08-07T05:55:32;6.00;;;3.85;;
39994;SDS011;25686;51.908;10.418;2023-08-07T05:57:33;6.05;;;3.90;;
39994;SDS011;25686;51.908;10.418;2023-08-07T05:59:33;6.05;;;4.35;;
39994;SDS011;25686;51.908;10.418;2023-08-07T06:01:35;6.75;;;4.15;;
39994;SDS011;25686;51.908;10.418;2023-08-07T06:03:37;8.45;;;4.50;;
39994;SDS011;25686;51.908;10.418;2023-08-07T06:05:37;8.65;;;4.10;;
39994;SDS011;25686;51.908;10.418;2023-08-07T06:07:38;6.63;;;4.20;;
39994;SDS011;25686;51.908;10.418;2023-08-07T06:09:40;7.95;;;4.32;;
39994;SDS011;25686;51.908;10.418;2023-08-07T06:11:41;6.32;;;4.40;;
39994;SDS011;25686;51.908;10.418;2023-08-07T06:13:42;7.63;;;4.57;;
39994;SDS011;25686;51.908;10.418;2023-08-07T06:15:43;12.95;;;5.10;;
39994;SDS011;25686;51.908;10.418;2023-08-07T06:17:44;14.05;;;4.80;;
39994;SDS011;25686;51.908;10.418;2023-08-07T06:19:45;6.03;;;4.40;;
39994;SDS011;25686;51.908;10.418;2023-08-07T06:21:46;7.50;;;4.15;;
39994;SDS011;25686;51.908;10.418;2023-08-07T06:23:47;7.10;;;4.65;;
39994;SDS011;25686;51.908;10.418;2023-08-07T06:25:48;7.32;;;4.57;;
39994;SDS011;25686;51.908;10.418;2023-08-07T06:27:50;14.18;;;4.63;;
39994;SDS011;25686;51.908;10.418;2023-08-07T06:29:51;12.93;;;5.47;;
39994;SDS011;25686;51.908;10.418;2023-08-07T06:31:52;14.88;;;4.72;;
39994;SDS011;25686;51.908;10.418;2023-08-07T06:33:53;13.27;;;4.40;;
39994;SDS011;25686;51.908;10.418;2023-08-07T06:35:54;19.00;;;5.10;;
39994;SDS011;25686;51.908;10.418;2023-08-07T06:37:55;17.35;;;6.00;;
39994;SDS011;25686;51.908;10.418;2023-08-07T06:39:56;8.73;;;4.20;;
39994;SDS011;25686;51.908;10.418;2023-08-07T06:41:57;9.70;;;4.28;;
39994;SDS011;25686;51.908;10.418;2023-08-07T06:44:00;8.20;;;4.35;;
39994;SDS011;25686;51.908;10.418;2023-08-07T06:46:01;9.65;;;4.70;;
39994;SDS011;25686;51.908;10.418;2023-08-07T06:48:02;9.02;;;4.05;;
39994;SDS011;25686;51.908;10.418;2023-08-07T06:50:03;6.38;;;4.50;;
39994;SDS011;25686;51.908;10.418;2023-08-07T06:52:04;5.90;;;3.47;;
39994;SDS011;25686;51.908;10.418;2023-08-07T06:54:05;8.52;;;4.57;;
39994;SDS011;25686;51.908;10.418;2023-08-07T06:56:06;7.47;;;4.18;;
39994;SDS011;25686;51.908;10.418;2023-08-07T06:58:07;8.80;;;4.78;;
39994;SDS011;25686;51.908;10.418;2023-08-07T07:00:08;9.45;;;4.13;;
39994;SDS011;25686;51.908;10.418;2023-08-07T07:02:11;10.05;;;4.22;;
39994;SDS011;25686;51.908;10.418;2023-08-07T07:04:11;5.15;;;3.70;;
39994;SDS011;25686;51.908;10.418;2023-08-07T07:06:13;6.90;;;3.97;;
39994;SDS011;25686;51.908;10.418;2023-08-07T07:08:14;12.55;;;4.13;;
39994;SDS011;25686;51.908;10.418;2023-08-07T07:10:15;7.68;;;4.03;;
39994;SDS011;25686;51.908;10.418;2023-08-07T07:12:15;8.38;;;3.85;;
39994;SDS011;25686;51.908;10.418;2023-08-07T07:14:16;7.18;;;3.88;;
39994;SDS011;25686;51.908;10.418;2023-08-07T07:16:18;5.93;;;3.28;;
39994;SDS011;25686;51.908;10.418;2023-08-07T07:18:21;8.57;;;3.13;;
39994;SDS011;25686;51.908;10.418;2023-08-07T07:20:22;6.88;;;3.90;;
39994;SDS011;25686;51.908;10.418;2023-08-07T07:22:23;5.90;;;3.15;;
39994;SDS011;25686;51.908;10.418;2023-08-07T07:24:24;4.97;;;3.42;;
39994;SDS011;25686;51.908;10.418;2023-08-07T07:26:25;10.48;;;4.03;;
39994;SDS011;25686;51.908;10.418;2023-08-07T07:28:27;6.68;;;3.92;;
39994;SDS011;25686;51.908;10.418;2023-08-07T07:30:28;7.28;;;3.95;;
39994;SDS011;25686;51.908;10.418;2023-08-07T07:32:28;5.90;;;4.00;;
39994;SDS011;25686;51.908;10.418;2023-08-07T07:34:29;4.30;;;3.08;;
39994;SDS011;25686;51.908;10.418;2023-08-07T07:36:30;5.03;;;3.70;;
39994;SDS011;25686;51.908;10.418;2023-08-07T07:38:32;5.40;;;3.83;;
39994;SDS011;25686;51.908;10.418;2023-08-07T07:40:36;6.80;;;3.35;;
39994;SDS011;25686;51.908;10.418;2023-08-07T07:42:37;6.38;;;3.55;;
39994;SDS011;25686;51.908;10.418;2023-08-07T07:44:38;5.22;;;3.30;;
39994;SDS011;25686;51.908;10.418;2023-08-07T07:46:39;5.18;;;3.22;;
39994;SDS011;25686;51.908;10.418;2023-08-07T07:48:40;8.88;;;3.50;;
39994;SDS011;25686;51.908;10.418;2023-08-07T07:50:42;6.63;;;3.30;;
39994;SDS011;25686;51.908;10.418;2023-08-07T07:52:43;5.35;;;3.03;;
39994;SDS011;25686;51.908;10.418;2023-08-07T07:54:44;7.43;;;2.97;;
39994;SDS011;25686;51.908;10.418;2023-08-07T07:56:45;7.20;;;2.60;;
39994;SDS011;25686;51.908;10.418;2023-08-07T07:58:46;3.95;;;2.60;;
39994;SDS011;25686;51.908;10.418;2023-08-07T08:00:47;3.78;;;2.92;;
39994;SDS011;25686;51.908;10.418;2023-08-07T08:02:48;8.80;;;2.85;;
39994;SDS011;25686;51.908;10.418;2023-08-07T08:04:50;19.55;;;4.30;;
39994;SDS011;25686;51.908;10.418;2023-08-07T08:06:51;18.30;;;4.05;;
39994;SDS011;25686;51.908;10.418;2023-08-07T08:08:52;6.90;;;3.22;;
39994;SDS011;25686;51.908;10.418;2023-08-07T08:10:53;6.95;;;2.88;;
39994;SDS011;25686;51.908;10.418;2023-08-07T08:12:54;4.95;;;2.67;;
39994;SDS011;25686;51.908;10.418;2023-08-07T08:14:55;5.32;;;2.60;;
39994;SDS011;25686;51.908;10.418;2023-08-07T08:16:56;4.35;;;2.88;;
39994;SDS011;25686;51.908;10.418;2023-08-07T08:18:57;6.05;;;3.00;;
39994;SDS011;25686;51.908;10.418;2023-08-07T08:20:58;5.70;;;2.80;;
39994;SDS011;25686;51.908;10.418;2023-08-07T08:22:59;5.50;;;2.20;;
39994;SDS011;25686;51.908;10.418;2023-08-07T08:25:00;4.85;;;2.50;;
39994;SDS011;25686;51.908;10.418;2023-08-07T08:27:01;3.58;;;2.22;;
39994;SDS011;25686;51.908;10.418;2023-08-07T08:29:02;6.68;;;2.55;;
39994;SDS011;25686;51.908;10.418;2023-08-07T08:31:05;4.97;;;2.30;;
39994;SDS011;25686;51.908;10.418;2023-08-07T08:33:06;5.10;;;2.28;;
39994;SDS011;25686;51.908;10.418;2023-08-07T08:35:09;2.92;;;1.95;;
39994;SDS011;25686;51.908;10.418;2023-08-07T08:37:10;3.85;;;1.80;;
39994;SDS011;25686;51.908;10.418;2023-08-07T08:39:11;3.63;;;1.75;;
39994;SDS011;25686;51.908;10.418;2023-08-07T08:41:12;4.57;;;2.17;;
39994;SDS011;25686;51.908;10.418;2023-08-07T08:43:13;4.50;;;1.85;;
39994;SDS011;25686;51.908;10.418;2023-08-07T08:45:14;4.18;;;1.60;;
39994;SDS011;25686;51.908;10.418;2023-08-07T08:47:15;3.85;;;1.80;;
39994;SDS011;25686;51.908;10.418;2023-08-07T08:49:17;4.38;;;1.80;;
39994;SDS011;25686;51.908;10.418;2023-08-07T08:51:21;4.72;;;1.50;;
39994;SDS011;25686;51.908;10.418;2023-08-07T08:53:22;2.80;;;1.48;;
39994;SDS011;25686;51.908;10.418;2023-08-07T08:55:23;3.10;;;1.52;;
39994;SDS011;25686;51.908;10.418;2023-08-07T08:57:26;3.88;;;1.70;;
39994;SDS011;25686;51.908;10.418;2023-08-07T08:59:27;3.92;;;1.92;;
39994;SDS011;25686;51.908;10.418;2023-08-07T09:01:28;2.83;;;1.40;;
39994;SDS011;25686;51.908;10.418;2023-08-07T09:03:30;2.58;;;1.27;;
39994;SDS011;25686;51.908;10.418;2023-08-07T09:05:31;2.28;;;1.60;;
39994;SDS011;25686;51.908;10.418;2023-08-07T09:07:32;3.20;;;1.60;;
39994;SDS011;25686;51.908;10.418;2023-08-07T09:09:34;4.40;;;1.70;;
39994;SDS011;25686;51.908;10.418;2023-08-07T09:11:35;5.10;;;1.58;;
39994;SDS011;25686;51.908;10.418;2023-08-07T09:13:37;4.65;;;1.75;;
39994;SDS011;25686;51.908;10.418;2023-08-07T09:15:38;3.22;;;1.70;;
39994;SDS011;25686;51.908;10.418;2023-08-07T09:17:40;1.67;;;1.58;;
39994;SDS011;25686;51.908;10.418;2023-08-07T09:19:41;5.00;;;1.88;;
39994;SDS011;25686;51.908;10.418;2023-08-07T09:21:42;2.75;;;1.70;;
39994;SDS011;25686;51.908;10.418;2023-08-07T09:23:43;2.22;;;1.52;;
39994;SDS011;25686;51.908;10.418;2023-08-07T09:25:44;3.50;;;1.48;;
39994;SDS011;25686;51.908;10.418;2023-08-07T09:27:45;2.95;;;1.40;;
39994;SDS011;25686;51.908;10.418;2023-08-07T09:29:46;2.00;;;1.60;;
39994;SDS011;25686;51.908;10.418;2023-08-07T09:31:47;2.30;;;1.60;;
39994;SDS011;25686;51.908;10.418;2023-08-07T09:33:48;3.83;;;1.73;;
39994;SDS011;25686;51.908;10.418;2023-08-07T09:35:50;3.70;;;1.60;;
39994;SDS011;25686;51.908;10.418;2023-08-07T09:37:51;5.03;;;1.60;;
39994;SDS011;25686;51.908;10.418;2023-08-07T09:39:51;3.08;;;1.65;;
39994;SDS011;25686;51.908;10.418;2023-08-07T09:41:53;2.35;;;1.50;;
39994;SDS011;25686;51.908;10.418;2023-08-07T09:43:54;2.97;;;1.58;;
39994;SDS011;25686;51.908;10.418;2023-08-07T09:46:07;4.82;;;1.50;;
39994;SDS011;25686;51.908;10.418;2023-08-07T09:48:08;2.03;;;1.40;;
39994;SDS011;25686;51.908;10.418;2023-08-07T09:50:17;3.33;;;1.50;;
39994;SDS011;25686;51.908;10.418;2023-08-07T09:52:18;2.33;;;1.60;;
39994;SDS011;25686;51.908;10.418;2023-08-07T09:54:19;3.28;;;1.45;;
39994;SDS011;25686;51.908;10.418;2023-08-07T09:56:20;5.28;;;1.40;;
39994;SDS011;25686;51.908;10.418;2023-08-07T09:58:22;3.08;;;1.55;;
39994;SDS011;25686;51.908;10.418;2023-08-07T10:00:24;2.83;;;1.50;;
39994;SDS011;25686;51.908;10.418;2023-08-07T10:02:25;2.97;;;1.35;;
39994;SDS011;25686;51.908;10.418;2023-08-07T10:04:26;5.43;;;1.67;;
39994;SDS011;25686;51.908;10.418;2023-08-07T10:06:27;7.22;;;1.90;;
39994;SDS011;25686;51.908;10.418;2023-08-07T10:08:28;3.97;;;1.58;;
39994;SDS011;25686;51.908;10.418;2023-08-07T10:10:29;5.07;;;1.40;;
39994;SDS011;25686;51.908;10.418;2023-08-07T10:12:33;5.15;;;1.33;;
39994;SDS011;25686;51.908;10.418;2023-08-07T10:14:34;6.55;;;1.33;;
39994;SDS011;25686;51.908;10.418;2023-08-07T10:16:35;5.07;;;1.60;;
39994;SDS011;25686;51.908;10.418;2023-08-07T10:18:39;5.35;;;1.75;;
39994;SDS011;25686;51.908;10.418;2023-08-07T10:20:40;7.03;;;1.58;;
39994;SDS011;25686;51.908;10.418;2023-08-07T10:22:44;3.92;;;1.30;;
39994;SDS011;25686;51.908;10.418;2023-08-07T10:24:48;11.52;;;1.60;;
39994;SDS011;25686;51.908;10.418;2023-08-07T10:26:50;3.88;;;1.40;;
39994;SDS011;25686;51.908;10.418;2023-08-07T10:28:52;3.05;;;1.48;;
39994;SDS011;25686;51.908;10.418;2023-08-07T10:30:53;5.13;;;1.40;;
39994;SDS011;25686;51.908;10.418;2023-08-07T10:32:54;2.22;;;1.40;;
39994;SDS011;25686;51.908;10.418;2023-08-07T10:34:56;1.85;;;1.20;;
39994;SDS011;25686;51.908;10.418;2023-08-07T10:36:57;2.60;;;1.10;;
39994;SDS011;25686;51.908;10.418;2023-08-07T10:39:08;4.45;;;1.33;;
39994;SDS011;25686;51.908;10.418;2023-08-07T10:41:10;2.83;;;1.30;;
39994;SDS011;25686;51.908;10.418;2023-08-07T10:43:13;3.90;;;1.42;;
39994;SDS011;25686;51.908;10.418;2023-08-07T10:45:18;1.17;;;1.00;;
39994;SDS011;25686;51.908;10.418;2023-08-07T10:47:33;2.75;;;1.20;;
39994;SDS011;25686;51.908;10.418;2023-08-07T10:49:35;16.30;;;1.98;;
39994;SDS011;25686;51.908;10.418;2023-08-07T10:51:37;3.78;;;1.20;;
39994;SDS011;25686;51.908;10.418;2023-08-07T10:53:40;7.70;;;2.47;;
39994;SDS011;25686;51.908;10.418;2023-08-07T10:55:44;8.52;;;1.75;;
39994;SDS011;25686;51.908;10.418;2023-08-07T10:57:46;3.58;;;1.10;;
39994;SDS011;25686;51.908;10.418;2023-08-07T10:59:51;5.20;;;1.60;;
39994;SDS011;25686;51.908;10.418;2023-08-07T11:01:53;2.85;;;1.30;;
39994;SDS011;25686;51.908;10.418;2023-08-07T11:04:05;4.00;;;1.30;;
39994;SDS011;25686;51.908;10.418;2023-08-07T11:06:06;4.72;;;1.00;;
39994;SDS011;25686;51.908;10.418;2023-08-07T11:08:07;3.22;;;1.15;;
39994;SDS011;25686;51.908;10.418;2023-08-07T11:10:08;4.13;;;1.20;;
39994;SDS011;25686;51.908;10.418;2023-08-07T11:12:09;8.70;;;1.80;;
39994;SDS011;25686;51.908;10.418;2023-08-07T11:14:11;5.53;;;1.45;;
39994;SDS011;25686;51.908;10.418;2023-08-07T11:16:13;6.45;;;1.40;;
39994;SDS011;25686;51.908;10.418;2023-08-07T11:18:14;5.30;;;1.30;;
39994;SDS011;25686;51.908;10.418;2023-08-07T11:20:16;3.28;;;1.48;;
39994;SDS011;25686;51.908;10.418;2023-08-07T11:22:17;5.93;;;1.52;;
39994;SDS011;25686;51.908;10.418;2023-08-07T11:24:19;3.47;;;1.23;;
39994;SDS011;25686;51.908;10.418;2023-08-07T11:26:21;5.18;;;1.50;;
39994;SDS011;25686;51.908;10.418;2023-08-07T11:28:24;4.72;;;1.20;;
39994;SDS011;25686;51.908;10.418;2023-08-07T11:30:25;3.72;;;1.30;;
39994;SDS011;25686;51.908;10.418;2023-08-07T11:32:26;4.22;;;1.50;;
39994;SDS011;25686;51.908;10.418;2023-08-07T11:34:28;4.28;;;1.42;;
39994;SDS011;25686;51.908;10.418;2023-08-07T11:36:29;2.70;;;1.20;;
39994;SDS011;25686;51.908;10.418;2023-08-07T11:38:38;4.22;;;1.40;;
39994;SDS011;25686;51.908;10.418;2023-08-07T11:40:39;4.00;;;1.30;;
39994;SDS011;25686;51.908;10.418;2023-08-07T11:42:41;4.05;;;1.23;;
39994;SDS011;25686;51.908;10.418;2023-08-07T11:44:42;2.25;;;1.10;;
39994;SDS011;25686;51.908;10.418;2023-08-07T11:46:43;3.83;;;1.40;;
39994;SDS011;25686;51.908;10.418;2023-08-07T11:48:44;2.95;;;1.30;;
39994;SDS011;25686;51.908;10.418;2023-08-07T11:50:45;4.38;;;1.23;;
39994;SDS011;25686;51.908;10.418;2023-08-07T11:52:46;3.13;;;0.80;;
39994;SDS011;25686;51.908;10.418;2023-08-07T11:54:47;4.75;;;0.82;;
39994;SDS011;25686;51.908;10.418;2023-08-07T11:56:49;3.67;;;1.02;;
39994;SDS011;25686;51.908;10.418;2023-08-07T11:58:50;1.98;;;1.00;;
39994;SDS011;25686;51.908;10.418;2023-08-07T12:00:52;4.85;;;1.10;;
39994;SDS011;25686;51.908;10.418;2023-08-07T12:02:53;4.10;;;1.05;;